Time;durP1;ratioP1;P1;durP2;ratioP2;P2;SDS_P1;SDS_P2;PMS_P1;PMS_P2;Temp;Humidity;BMP_temperature;BMP_pressure;BME280_temperature;BME280_humidity;BME280_pressure;Samples;Min_cycle;Max_cycle;Signal;HPM_P1;HPM_P2
2022/11/02 00:00:40;;;;;;;6.73;1.33;;;16.60;99.90;;;;;;5099448;28;20201;-33
2022/11/02 00:03:07;;;;;;;5.97;1.30;;;16.60;99.90;;;;;;5095508;28;20721;-33
2022/11/02 00:05:35;;;;;;;6.80;1.50;;;16.60;99.90;;;;;;5096522;28;20228;-33
2022/11/02 00:08:03;;;;;;;7.07;1.77;;;16.60;99.90;;;;;;5092071;28;20861;-33
2022/11/02 00:10:30;;;;;;;10.80;1.73;;;16.60;99.90;;;;;;5094425;28;20712;-33
2022/11/02 00:13:00;;;;;;;4.17;1.13;;;16.60;99.90;;;;;;5100889;28;20600;-33
2022/11/02 00:15:30;;;;;;;4.50;1.50;;;16.50;99.90;;;;;;5092289;28;20221;-33
2022/11/02 00:18:08;;;;;;;4.47;1.15;;;16.50;99.90;;;;;;5084387;28;20281;-33
2022/11/02 00:20:38;;;;;;;5.30;1.40;;;16.50;99.90;;;;;;5087742;28;20233;-33
2022/11/02 00:23:09;;;;;;;6.03;1.30;;;16.50;99.90;;;;;;5098387;28;20238;-34
2022/11/02 00:25:56;;;;;;;8.10;1.33;;;16.50;99.90;;;;;;5089144;28;20206;-34
2022/11/02 00:28:29;;;;;;;6.47;1.20;;;16.40;99.90;;;;;;5090351;28;20228;-33
2022/11/02 00:30:58;;;;;;;4.47;0.97;;;16.40;99.90;;;;;;5093007;28;20209;-34
2022/11/02 00:33:28;;;;;;;5.17;1.23;;;16.40;99.90;;;;;;5086748;28;20215;-34
2022/11/02 00:35:58;;;;;;;7.23;1.30;;;16.40;99.90;;;;;;5090039;28;20201;-34
2022/11/02 00:38:25;;;;;;;5.73;1.23;;;16.40;99.90;;;;;;5100577;28;20328;-33
2022/11/02 00:40:52;;;;;;;6.20;1.57;;;16.40;99.90;;;;;;5084555;28;20570;-34
2022/11/02 00:43:21;;;;;;;4.03;1.20;;;16.30;99.90;;;;;;5084121;28;20413;-33
2022/11/02 00:45:49;;;;;;;7.10;1.50;;;16.30;99.90;;;;;;5084840;28;20662;-34
2022/11/02 00:48:16;;;;;;;3.17;1.10;;;16.30;99.90;;;;;;5096286;28;20229;-33
2022/11/02 00:50:45;;;;;;;7.23;1.50;;;16.30;99.90;;;;;;5098875;28;20224;-34
2022/11/02 00:53:12;;;;;;;6.47;1.50;;;16.30;99.90;;;;;;5083604;28;20731;-33
2022/11/02 00:55:40;;;;;;;6.93;1.47;;;16.30;99.90;;;;;;5091095;28;20197;-33
2022/11/02 00:58:07;;;;;;;5.50;1.43;;;16.30;99.90;;;;;;5087823;28;20230;-33
2022/11/02 01:00:34;;;;;;;7.50;1.70;;;16.30;99.90;;;;;;5096974;28;20198;-33
2022/11/02 01:03:03;;;;;;;5.37;1.20;;;16.20;99.90;;;;;;5087117;28;20241;-33
2022/11/02 01:05:31;;;;;;;5.87;1.60;;;16.30;99.90;;;;;;5091144;28;20211;-32
2022/11/02 01:07:58;;;;;;;7.77;1.50;;;16.20;99.90;;;;;;5095728;28;20673;-32
2022/11/02 01:10:25;;;;;;;4.13;1.23;;;16.20;99.90;;;;;;5093284;28;20226;-32
2022/11/02 01:12:52;;;;;;;6.03;1.47;;;16.20;99.90;;;;;;5101849;28;20193;-34
2022/11/02 01:15:19;;;;;;;4.27;1.00;;;16.20;99.90;;;;;;5095443;28;20230;-34
2022/11/02 01:17:48;;;;;;;7.37;1.33;;;16.20;99.90;;;;;;5101258;28;20297;-34
2022/11/02 01:20:16;;;;;;;7.03;1.40;;;16.20;99.90;;;;;;5103736;28;20256;-34
2022/11/02 01:22:43;;;;;;;4.97;1.50;;;16.20;99.90;;;;;;5105919;28;20267;-34
2022/11/02 01:25:10;;;;;;;4.17;1.13;;;16.20;99.90;;;;;;5099563;28;20205;-34
2022/11/02 01:27:39;;;;;;;5.77;1.47;;;16.20;99.90;;;;;;5096486;28;20202;-34
2022/11/02 01:30:07;;;;;;;11.17;1.13;;;16.10;99.90;;;;;;5086317;28;20199;-34
2022/11/02 01:32:34;;;;;;;6.00;1.50;;;16.10;99.90;;;;;;5093474;28;20195;-34
2022/11/02 01:35:01;;;;;;;6.33;1.40;;;16.10;99.90;;;;;;5092095;28;20709;-34
2022/11/02 01:37:28;;;;;;;7.40;1.70;;;16.10;99.90;;;;;;5091295;28;20225;-34
2022/11/02 01:39:56;;;;;;;7.77;1.30;;;16.00;99.90;;;;;;5104898;28;20198;-34
2022/11/02 01:42:26;;;;;;;4.83;1.10;;;16.00;99.90;;;;;;5085133;28;20221;-34
2022/11/02 01:44:53;;;;;;;4.10;1.20;;;16.00;99.90;;;;;;5095236;28;20217;-34
2022/11/02 01:47:26;;;;;;;3.60;1.30;;;16.00;99.90;;;;;;5092806;28;20301;-34
2022/11/02 01:50:05;;;;;;;7.87;1.50;;;15.90;99.90;;;;;;5096761;28;20199;-34
2022/11/02 01:52:36;;;;;;;5.40;1.20;;;15.90;99.90;;;;;;5104729;28;20210;-34
2022/11/02 01:55:23;;;;;;;9.40;1.90;;;15.90;99.90;;;;;;5090488;28;20198;-34
2022/11/02 01:58:01;;;;;;;4.87;1.30;;;15.90;99.90;;;;;;5100055;28;20226;-35
2022/11/02 02:00:32;;;;;;;7.17;1.67;;;15.90;99.90;;;;;;5092480;28;20696;-35
2022/11/02 02:03:11;;;;;;;4.43;1.03;;;15.80;99.90;;;;;;5097866;28;20481;-34
2022/11/02 02:05:42;;;;;;;5.38;1.60;;;15.80;99.90;;;;;;5088495;28;20208;-35
2022/11/02 02:08:13;;;;;;;5.60;1.43;;;15.80;99.90;;;;;;5092555;28;20858;-34
2022/11/02 02:10:40;;;;;;;8.13;1.87;;;15.80;99.90;;;;;;5102503;28;20498;-35
2022/11/02 02:13:07;;;;;;;5.60;1.10;;;15.70;99.90;;;;;;5101197;28;20201;-35
2022/11/02 02:16:04;;;;;;;9.40;1.70;;;15.70;99.90;;;;;;5101134;28;20200;-34
2022/11/02 02:18:50;;;;;;;6.37;1.43;;;15.70;99.90;;;;;;5089766;28;20694;-34
2022/11/02 02:21:57;;;;;;;9.47;1.23;;;15.70;99.90;;;;;;5101686;28;20573;-35
2022/11/02 02:24:43;;;;;;;5.17;1.37;;;15.60;99.90;;;;;;5090412;28;20424;-35
2022/11/02 02:27:22;;;;;;;5.47;1.43;;;15.60;99.90;;;;;;5111831;27;20765;-35
2022/11/02 02:30:08;;;;;;;10.30;1.73;;;15.60;99.90;;;;;;5089691;28;20195;-35
2022/11/02 02:33:01;;;;;;;10.83;2.07;;;15.60;99.90;;;;;;5088378;28;20666;-35
2022/11/02 02:35:40;;;;;;;7.33;1.37;;;15.60;99.90;;;;;;5095597;28;20238;-35
2022/11/02 02:38:14;;;;;;;8.63;1.77;;;15.60;99.90;;;;;;5095012;28;20218;-35
2022/11/02 02:41:09;;;;;;;5.83;1.30;;;15.60;99.90;;;;;;5094676;28;20202;-35
2022/11/02 02:43:45;;;;;;;9.77;1.47;;;15.60;99.90;;;;;;5099542;28;20214;-34
2022/11/02 02:46:20;;;;;;;9.20;1.63;;;15.60;99.90;;;;;;5093607;28;20214;-34
2022/11/02 02:48:50;;;;;;;10.50;1.90;;;15.60;99.90;;;;;;5095073;28;20218;-34
2022/11/02 02:51:26;;;;;;;9.30;1.57;;;15.60;99.90;;;;;;5093562;28;20636;-33
2022/11/02 02:54:10;;;;;;;5.60;1.50;;;15.50;99.90;;;;;;5091583;28;20249;-34
2022/11/02 02:56:49;;;;;;;6.57;1.73;;;15.50;99.90;;;;;;5102925;28;20198;-34
2022/11/02 02:59:28;;;;;;;10.83;1.83;;;15.50;99.90;;;;;;5085102;28;20202;-34
2022/11/02 03:01:57;;;;;;;10.10;1.90;;;15.50;99.90;;;;;;5088043;28;20214;-34
2022/11/02 03:04:24;;;;;;;8.33;1.50;;;15.50;99.90;;;;;;5089755;28;20207;-34
2022/11/02 03:06:56;;;;;;;9.73;1.70;;;15.50;99.90;;;;;;5103636;28;20649;-34
2022/11/02 03:09:42;;;;;;;9.83;1.83;;;15.50;99.90;;;;;;5086830;28;20219;-34
2022/11/02 03:12:27;;;;;;;8.60;2.03;;;15.50;99.90;;;;;;5088244;28;20233;-34
2022/11/02 03:15:23;;;;;;;10.53;1.53;;;15.50;99.90;;;;;;5096401;28;20287;-33
2022/11/02 03:18:13;;;;;;;9.80;1.70;;;15.40;99.90;;;;;;5089169;28;20203;-34
2022/11/02 03:20:57;;;;;;;12.07;2.00;;;15.40;99.90;;;;;;5092984;28;20668;-34
2022/11/02 03:23:33;;;;;;;7.07;1.77;;;15.40;99.90;;;;;;5087910;28;20230;-34
2022/11/02 03:26:04;;;;;;;6.63;1.60;;;15.40;99.90;;;;;;5083403;28;20202;-34
2022/11/02 03:28:49;;;;;;;13.93;1.93;;;15.40;99.90;;;;;;5096503;28;20199;-34
2022/11/02 03:31:21;;;;;;;4.57;1.50;;;15.40;99.90;;;;;;5084273;28;20495;-34
2022/11/02 03:33:59;;;;;;;11.87;2.57;;;15.30;99.90;;;;;;5082677;28;20286;-34
2022/11/02 03:36:38;;;;;;;9.00;2.00;;;15.30;99.90;;;;;;5085669;28;20229;-34
2022/11/02 03:39:13;;;;;;;5.63;1.33;;;15.30;99.90;;;;;;5085413;28;20195;-34
2022/11/02 03:41:43;;;;;;;10.07;1.93;;;15.30;99.90;;;;;;5083412;28;20655;-34
2022/11/02 03:44:15;;;;;;;8.80;1.90;;;15.30;99.90;;;;;;5085545;28;20190;-34
2022/11/02 03:46:43;;;;;;;10.00;1.40;;;15.30;99.90;;;;;;5103908;28;20233;-34
2022/11/02 03:49:15;;;;;;;8.33;1.63;;;15.30;99.90;;;;;;5083576;28;20241;-34
2022/11/02 03:51:47;;;;;;;8.27;2.23;;;15.30;99.90;;;;;;5089522;28;20203;-34
2022/11/02 03:54:47;;;;;;;9.77;1.90;;;15.30;99.90;;;;;;5098088;28;20206;-34
2022/11/02 03:57:21;;;;;;;7.87;1.67;;;15.30;99.90;;;;;;5088119;28;20519;-34
2022/11/02 03:59:48;;;;;;;8.50;1.70;;;15.30;99.90;;;;;;5097303;28;20198;-34
2022/11/02 04:02:17;;;;;;;10.83;1.80;;;15.20;99.90;;;;;;5098639;28;20966;-34
2022/11/02 04:04:52;;;;;;;8.63;1.40;;;15.20;99.90;;;;;;5096986;28;20245;-34
2022/11/02 04:07:24;;;;;;;8.90;2.00;;;15.20;99.90;;;;;;5099509;28;20229;-33
2022/11/02 04:09:51;;;;;;;11.53;1.80;;;15.20;99.90;;;;;;5082348;28;20311;-33
2022/11/02 04:15:07;;;;;;;8.77;1.50;;;15.20;99.90;;;;;;5091431;28;20206;-33
2022/11/02 04:20:20;;;;;;;11.93;2.03;;;15.10;99.90;;;;;;5088483;28;20265;-33
2022/11/02 04:25:33;;;;;;;8.93;1.77;;;15.10;99.90;;;;;;5089222;28;20202;-33
2022/11/02 04:28:07;;;;;;;10.13;2.03;;;15.10;99.90;;;;;;5087321;28;20244;-33
2022/11/02 04:30:34;;;;;;;11.90;2.03;;;15.10;99.90;;;;;;5103054;28;20197;-33
2022/11/02 04:35:50;;;;;;;10.50;1.87;;;15.10;99.90;;;;;;5086354;28;20242;-33
2022/11/02 04:43:52;;;;;;;10.43;2.17;;;15.00;99.90;;;;;;5094155;28;20747;-33
2022/11/02 04:46:21;;;;;;;7.47;1.60;;;15.00;99.90;;;;;;5094666;28;20585;-33
2022/11/02 04:48:49;;;;;;;8.53;1.77;;;15.00;99.90;;;;;;5087366;28;20226;-33
2022/11/02 04:51:16;;;;;;;9.33;1.77;;;14.90;99.90;;;;;;5100269;28;20294;-33
2022/11/02 04:53:43;;;;;;;5.97;1.77;;;15.00;99.90;;;;;;5088088;28;20302;-33
2022/11/02 04:56:13;;;;;;;9.33;1.70;;;15.00;99.90;;;;;;5090983;28;20320;-33
2022/11/02 04:58:40;;;;;;;11.67;1.50;;;15.00;99.90;;;;;;5099043;28;20321;-33
2022/11/02 05:01:12;;;;;;;8.63;1.63;;;15.00;99.90;;;;;;5099438;28;20316;-33
2022/11/02 05:03:42;;;;;;;6.80;1.40;;;15.00;99.90;;;;;;5091981;28;20214;-33
2022/11/02 05:06:10;;;;;;;8.57;1.33;;;15.00;99.90;;;;;;5091814;28;20587;-34
2022/11/02 05:08:42;;;;;;;5.53;1.47;;;15.00;99.90;;;;;;5093981;28;20281;-33
2022/11/02 05:11:12;;;;;;;9.50;1.83;;;14.90;99.90;;;;;;5090547;28;20704;-34
2022/11/02 05:13:40;;;;;;;7.07;1.87;;;14.90;99.90;;;;;;5098803;28;20559;-34
2022/11/02 05:16:13;;;;;;;9.10;1.70;;;14.90;99.90;;;;;;5103640;28;20233;-34
2022/11/02 05:18:40;;;;;;;7.90;1.80;;;14.90;99.90;;;;;;5086665;28;20731;-34
2022/11/02 05:21:11;;;;;;;7.23;1.33;;;14.90;99.90;;;;;;5091236;28;20704;-34
2022/11/02 05:23:38;;;;;;;9.63;1.60;;;14.80;99.90;;;;;;5087470;28;20230;-33
2022/11/02 05:26:10;;;;;;;8.23;1.90;;;14.80;99.90;;;;;;5090799;28;20212;-34
2022/11/02 05:28:43;;;;;;;10.30;1.50;;;14.80;99.90;;;;;;5100498;28;20222;-34
2022/11/02 05:31:10;;;;;;;11.60;2.17;;;14.80;99.90;;;;;;5108288;28;20770;-34
2022/11/02 05:33:38;;;;;;;7.30;1.73;;;14.80;99.90;;;;;;5086140;28;20495;-34
2022/11/02 05:36:05;;;;;;;8.57;1.80;;;14.80;99.90;;;;;;5095211;28;20221;-34
2022/11/02 05:38:32;;;;;;;6.77;1.40;;;14.70;99.90;;;;;;5102594;28;20313;-34
2022/11/02 05:41:00;;;;;;;7.57;1.83;;;14.70;99.90;;;;;;5098365;27;20198;-34
2022/11/02 05:43:29;;;;;;;10.17;2.20;;;14.70;99.90;;;;;;5086278;28;21106;-33
2022/11/02 05:46:00;;;;;;;9.87;2.30;;;14.70;99.90;;;;;;5104667;28;20210;-34
2022/11/02 05:48:30;;;;;;;8.73;1.70;;;14.70;99.90;;;;;;5093655;28;20218;-34
2022/11/02 05:51:01;;;;;;;6.40;1.73;;;14.70;99.90;;;;;;5094711;28;20673;-34
2022/11/02 05:53:32;;;;;;;11.33;1.97;;;14.60;99.90;;;;;;5090763;28;20712;-34
2022/11/02 05:56:02;;;;;;;12.23;1.83;;;14.60;99.90;;;;;;5096183;28;20210;-33
2022/11/02 05:58:29;;;;;;;7.77;1.90;;;14.60;99.90;;;;;;5084642;28;20238;-34
2022/11/02 06:01:01;;;;;;;12.37;1.83;;;14.50;99.90;;;;;;5091643;28;20747;-34
2022/11/02 06:03:29;;;;;;;9.50;2.40;;;14.50;99.90;;;;;;5090689;28;20295;-34
2022/11/02 06:06:05;;;;;;;8.90;2.00;;;14.50;99.90;;;;;;5097979;28;20327;-34
2022/11/02 06:08:33;;;;;;;9.10;2.00;;;14.50;99.90;;;;;;5094471;28;20285;-33
2022/11/02 06:11:12;;;;;;;8.77;2.27;;;14.50;99.90;;;;;;5089481;28;20457;-34
2022/11/02 06:13:40;;;;;;;10.53;1.97;;;14.50;99.90;;;;;;5091588;28;20225;-34
2022/11/02 06:16:10;;;;;;;8.83;2.30;;;14.50;99.90;;;;;;5106690;28;20213;-34
2022/11/02 06:18:37;;;;;;;8.13;1.70;;;14.50;99.90;;;;;;5093190;28;20589;-34
2022/11/02 06:21:05;;;;;;;9.77;1.97;;;14.50;99.90;;;;;;5090619;28;20317;-34
2022/11/02 06:23:33;;;;;;;15.10;2.77;;;14.40;99.90;;;;;;5098824;28;20239;-34
2022/11/02 06:26:03;;;;;;;32.23;3.90;;;14.50;99.90;;;;;;5116848;27;20195;-34
2022/11/02 06:28:32;;;;;;;16.17;3.07;;;14.40;99.90;;;;;;5093297;28;20252;-34
2022/11/02 06:31:02;;;;;;;18.43;2.60;;;14.40;99.90;;;;;;5097983;28;20603;-34
2022/11/02 06:33:29;;;;;;;20.67;3.70;;;14.40;99.90;;;;;;5093778;28;20289;-33
2022/11/02 06:35:59;;;;;;;17.17;2.77;;;14.40;99.90;;;;;;5090994;28;20200;-33
2022/11/02 06:38:26;;;;;;;14.30;2.60;;;14.40;99.90;;;;;;5101127;28;20800;-34
2022/11/02 06:40:58;;;;;;;15.70;2.67;;;14.40;99.90;;;;;;5092596;28;20199;-33
2022/11/02 06:43:28;;;;;;;13.13;2.63;;;14.30;99.90;;;;;;5090533;28;20689;-33
2022/11/02 06:45:58;;;;;;;9.20;2.20;;;14.30;99.90;;;;;;5088529;28;20229;-33
2022/11/02 06:48:27;;;;;;;13.67;2.30;;;14.30;99.90;;;;;;5087496;28;20233;-33
2022/11/02 06:51:01;;;;;;;8.43;1.80;;;14.30;99.90;;;;;;5080760;28;20658;-33
2022/11/02 06:53:29;;;;;;;10.83;2.10;;;14.30;99.90;;;;;;5084371;28;20310;-33
2022/11/02 06:55:58;;;;;;;12.97;2.13;;;14.30;99.90;;;;;;5085882;28;20215;-33
2022/11/02 06:58:25;;;;;;;9.90;2.00;;;14.30;99.90;;;;;;5084842;28;20301;-33
2022/11/02 07:01:05;;;;;;;9.90;2.00;;;14.20;99.90;;;;;;5085143;28;20685;-33
2022/11/02 07:03:33;;;;;;;11.50;2.47;;;14.20;99.90;;;;;;5085746;28;20292;-33
2022/11/02 07:06:01;;;;;;;10.13;1.83;;;14.20;99.90;;;;;;5097174;28;20764;-33
2022/11/02 07:08:28;;;;;;;6.70;2.03;;;14.20;99.90;;;;;;5089958;28;20711;-33
2022/11/02 07:10:58;;;;;;;12.63;2.30;;;14.20;99.90;;;;;;5087847;28;20190;-33
2022/11/02 07:13:25;;;;;;;10.90;2.37;;;14.20;99.90;;;;;;5091461;28;20209;-33
2022/11/02 07:15:53;;;;;;;9.60;2.37;;;14.20;99.90;;;;;;5092130;28;20643;-33
2022/11/02 07:18:23;;;;;;;9.37;2.20;;;14.20;99.90;;;;;;5093829;28;20218;-33
2022/11/02 07:20:52;;;;;;;10.67;3.00;;;14.20;99.90;;;;;;5085037;28;20238;-33
2022/11/02 07:23:22;;;;;;;14.03;2.47;;;14.20;99.90;;;;;;5099222;28;20254;-33
2022/11/02 07:25:50;;;;;;;11.97;2.20;;;14.20;99.90;;;;;;5088467;28;20221;-33
2022/11/02 07:28:20;;;;;;;12.03;2.40;;;14.20;99.90;;;;;;5088046;28;20562;-33
2022/11/02 07:30:47;;;;;;;11.23;2.43;;;14.20;99.90;;;;;;5083547;28;20199;-33
2022/11/02 07:33:15;;;;;;;11.30;2.47;;;14.20;99.90;;;;;;5095020;28;20205;-33
2022/11/02 07:35:42;;;;;;;16.67;2.53;;;14.20;99.90;;;;;;5094379;28;20230;-33
2022/11/02 07:38:10;;;;;;;7.23;2.03;;;14.30;99.90;;;;;;5084994;28;20199;-33
2022/11/02 07:40:37;;;;;;;13.93;2.60;;;14.30;99.90;;;;;;5095324;28;20630;-34
2022/11/02 07:43:07;;;;;;;10.07;2.30;;;14.30;99.90;;;;;;5090607;28;20222;-33
2022/11/02 07:45:35;;;;;;;10.07;2.10;;;14.30;99.90;;;;;;5086494;28;20273;-33
2022/11/02 07:48:02;;;;;;;11.00;2.17;;;14.30;99.90;;;;;;5091468;28;20195;-33
2022/11/02 07:50:29;;;;;;;12.23;2.93;;;14.30;99.90;;;;;;5087510;28;20285;-33
2022/11/02 07:53:00;;;;;;;12.43;2.90;;;14.30;99.90;;;;;;5091476;28;20783;-33
2022/11/02 07:55:29;;;;;;;14.83;2.47;;;14.20;99.90;;;;;;5098116;28;20195;-33
2022/11/02 07:58:06;;;;;;;10.00;2.40;;;14.30;99.90;;;;;;5100014;28;20309;-33
2022/11/02 08:00:38;;;;;;;19.23;2.53;;;14.30;99.90;;;;;;5089239;28;20210;-33
2022/11/02 08:03:06;;;;;;;11.20;2.10;;;14.30;99.90;;;;;;5083411;28;20809;-33
2022/11/02 08:05:36;;;;;;;9.77;2.20;;;14.30;99.90;;;;;;5083515;28;20657;-33
2022/11/02 08:08:13;;;;;;;11.00;1.93;;;14.30;99.90;;;;;;5090289;28;20237;-33
2022/11/02 08:10:41;;;;;;;10.97;1.97;;;14.40;99.90;;;;;;5083363;28;20425;-33
2022/11/02 08:13:10;;;;;;;15.83;2.73;;;14.30;99.90;;;;;;5081773;28;20195;-33
2022/11/02 08:15:37;;;;;;;16.47;3.33;;;14.30;99.90;;;;;;5101340;28;20194;-32
2022/11/02 08:18:04;;;;;;;14.27;2.73;;;14.40;99.90;;;;;;5094377;28;20324;-33
2022/11/02 08:20:34;;;;;;;14.03;2.87;;;14.40;99.90;;;;;;5083580;28;20242;-33
2022/11/02 08:23:03;;;;;;;7.00;2.37;;;14.40;99.90;;;;;;5082793;28;20230;-33
2022/11/02 08:25:30;;;;;;;13.73;2.50;;;14.40;99.90;;;;;;5096808;28;20759;-33
2022/11/02 08:27:59;;;;;;;12.90;2.70;;;14.40;99.90;;;;;;5103218;28;20214;-33
2022/11/02 08:30:28;;;;;;;13.77;2.80;;;14.50;99.90;;;;;;5090357;28;20268;-33
2022/11/02 08:33:05;;;;;;;9.03;2.57;;;14.50;99.90;;;;;;5083543;28;20202;-32
2022/11/02 08:35:33;;;;;;;11.77;2.73;;;14.50;99.90;;;;;;5087404;28;20684;-32
2022/11/02 08:38:01;;;;;;;11.03;2.60;;;14.50;99.90;;;;;;5092758;28;20230;-33
2022/11/02 08:40:29;;;;;;;8.80;2.43;;;14.50;99.90;;;;;;5099985;28;20210;-32
2022/11/02 08:43:01;;;;;;;10.77;2.53;;;14.50;99.90;;;;;;5100890;28;20252;-32
2022/11/02 08:45:31;;;;;;;13.77;2.67;;;14.50;99.90;;;;;;5102393;28;20222;-32
2022/11/02 08:48:18;;;;;;;13.33;2.40;;;14.60;99.90;;;;;;5088391;28;20530;-33
2022/11/02 08:50:47;;;;;;;17.53;3.13;;;14.50;99.90;;;;;;5095080;28;20474;-33
2022/11/02 08:53:17;;;;;;;16.97;2.73;;;14.60;99.90;;;;;;5103727;28;20423;-33
2022/11/02 08:55:44;;;;;;;16.50;2.90;;;14.60;99.90;;;;;;5086460;28;20207;-32
2022/11/02 08:58:11;;;;;;;13.40;2.30;;;14.70;99.90;;;;;;5083575;28;20199;-33
2022/11/02 09:00:38;;;;;;;11.27;2.43;;;14.70;99.90;;;;;;5086682;28;20631;-33
2022/11/02 09:03:13;;;;;;;10.20;2.67;;;14.70;99.90;;;;;;5086442;28;20288;-33
2022/11/02 09:05:45;;;;;;;12.83;2.43;;;14.70;99.90;;;;;;5089446;28;20202;-33
2022/11/02 09:08:19;;;;;;;11.77;2.27;;;14.80;99.90;;;;;;5093516;28;20210;-32
2022/11/02 09:10:50;;;;;;;11.57;2.17;;;14.90;99.90;;;;;;5082537;28;20336;-33
2022/11/02 09:13:24;;;;;;;12.03;2.60;;;14.90;99.90;;;;;;5082046;28;20223;-33
2022/11/02 09:15:54;;;;;;;15.90;2.47;;;14.90;99.90;;;;;;5084179;28;20219;-33
2022/11/02 09:18:22;;;;;;;12.27;2.43;;;15.00;99.90;;;;;;5084024;28;20206;-33
2022/11/02 09:20:50;;;;;;;12.43;2.43;;;15.00;99.90;;;;;;5092709;28;20493;-33
2022/11/02 09:23:19;;;;;;;12.03;2.60;;;15.00;99.90;;;;;;5085968;28;20286;-32
2022/11/02 09:25:47;;;;;;;14.83;2.30;;;15.00;99.90;;;;;;5098647;28;20198;-32
2022/11/02 09:28:14;;;;;;;10.57;2.40;;;15.00;99.90;;;;;;5085143;28;20226;-33
2022/11/02 09:30:42;;;;;;;12.73;2.30;;;15.00;99.90;;;;;;5085179;28;20198;-33
2022/11/02 09:33:10;;;;;;;13.60;3.00;;;15.10;99.90;;;;;;5084417;28;20210;-33
2022/11/02 09:35:43;;;;;;;11.90;2.37;;;15.10;99.90;;;;;;5085625;28;20646;-33
2022/11/02 09:38:10;;;;;;;11.33;2.43;;;15.10;99.90;;;;;;5093784;28;20285;-33
2022/11/02 09:40:54;;;;;;;12.60;2.53;;;15.10;99.90;;;;;;5086177;28;20270;-33
2022/11/02 09:43:38;;;;;;;12.07;2.40;;;15.20;99.90;;;;;;5091588;28;20287;-33
2022/11/02 09:46:12;;;;;;;11.60;2.67;;;15.20;99.90;;;;;;5101460;27;20206;-32
2022/11/02 09:48:47;;;;;;;10.90;2.17;;;15.20;99.90;;;;;;5085320;28;20276;-33
2022/11/02 09:51:28;;;;;;;12.77;2.57;;;15.20;99.90;;;;;;5096560;28;20370;-32
2022/11/02 09:54:28;;;;;;;8.93;2.17;;;15.30;99.90;;;;;;5105989;28;20271;-32
2022/11/02 09:57:00;;;;;;;13.63;2.90;;;15.30;99.90;;;;;;5099035;28;20282;-33
2022/11/02 09:59:30;;;;;;;16.53;2.40;;;15.30;99.90;;;;;;5097888;28;20198;-34
2022/11/02 10:02:18;;;;;;;15.70;2.80;;;15.40;99.90;;;;;;5102246;28;20206;-33
2022/11/02 10:05:07;;;;;;;16.93;2.90;;;15.40;99.90;;;;;;5097327;28;20222;-33
2022/11/02 10:07:54;;;;;;;15.37;2.87;;;15.40;99.90;;;;;;5101664;28;20214;-33
2022/11/02 10:10:48;;;;;;;13.33;2.77;;;15.40;99.90;;;;;;5095145;28;20283;-33
2022/11/02 10:13:41;;;;;;;10.73;2.93;;;15.40;99.90;;;;;;5093061;28;20221;-33
2022/11/02 10:16:19;;;;;;;9.73;2.53;;;15.50;99.90;;;;;;5106573;28;20607;-33
2022/11/02 10:18:50;;;;;;;11.07;2.63;;;15.50;99.90;;;;;;5093001;28;21055;-33
2022/11/02 10:21:32;;;;;;;11.60;3.30;;;15.50;99.90;;;;;;5092230;28;20326;-33
2022/11/02 10:24:24;;;;;;;11.50;2.10;;;15.50;99.90;;;;;;5091065;28;20224;-33
2022/11/02 10:26:57;;;;;;;11.63;2.57;;;15.60;99.90;;;;;;5088069;28;20236;-33
2022/11/02 10:29:55;;;;;;;15.93;3.13;;;15.60;99.90;;;;;;5087536;28;20376;-32
2022/11/02 10:32:25;;;;;;;12.47;2.80;;;15.70;99.90;;;;;;5102036;28;20218;-32
2022/11/02 10:34:52;;;;;;;12.57;2.40;;;15.60;99.90;;;;;;5101502;28;20210;-32
2022/11/02 10:37:57;;;;;;;12.67;2.70;;;15.70;99.90;;;;;;5101682;28;20198;-31
2022/11/02 10:40:46;;;;;;;10.77;2.20;;;15.70;99.90;;;;;;5100053;28;20202;-32
2022/11/02 10:43:51;;;;;;;10.00;2.17;;;15.70;99.90;;;;;;5103365;28;20234;-34
2022/11/02 10:46:46;;;;;;;11.97;2.50;;;15.70;99.90;;;;;;5085247;28;20215;-33
2022/11/02 10:49:29;;;;;;;6.60;2.10;;;15.80;99.90;;;;;;5095543;28;20347;-33
2022/11/02 10:51:56;;;;;;;11.87;2.40;;;15.80;99.90;;;;;;5097805;28;20198;-33
2022/11/02 10:54:25;;;;;;;9.90;2.30;;;15.90;99.90;;;;;;5094932;28;20267;-33
2022/11/02 10:57:12;;;;;;;10.90;2.30;;;15.90;99.90;;;;;;5086978;28;20194;-33
2022/11/02 10:59:39;;;;;;;13.23;2.72;;;16.00;99.90;;;;;;5092800;28;20551;-33
2022/11/02 11:02:12;;;;;;;14.77;3.07;;;16.00;99.90;;;;;;5094970;28;20199;-33
2022/11/02 11:04:43;;;;;;;15.13;2.73;;;16.10;99.90;;;;;;5088938;28;20264;-33
2022/11/02 11:07:26;;;;;;;14.17;2.80;;;16.10;99.90;;;;;;5092438;28;20191;-34
2022/11/02 11:09:55;;;;;;;12.33;1.93;;;16.10;99.90;;;;;;5089892;28;20306;-34
2022/11/02 11:12:32;;;;;;;10.33;2.17;;;16.20;99.90;;;;;;5097325;28;21035;-33
2022/11/02 11:15:01;;;;;;;8.37;2.13;;;16.20;99.90;;;;;;5097154;28;20616;-34
2022/11/02 11:17:49;;;;;;;8.93;1.98;;;16.20;99.90;;;;;;5093916;28;20219;-32
2022/11/02 11:20:38;;;;;;;14.38;2.40;;;16.30;99.90;;;;;;5085565;28;20257;-32
2022/11/02 11:23:24;;;;;;;15.30;2.90;;;16.40;99.90;;;;;;5088545;28;20403;-32
2022/11/02 11:26:05;;;;;;;13.67;2.57;;;16.40;99.90;;;;;;5089062;28;20301;-32
2022/11/02 11:28:50;;;;;;;12.33;2.43;;;16.50;99.90;;;;;;5097230;28;20189;-32
2022/11/02 11:31:21;;;;;;;8.07;2.00;;;16.50;99.90;;;;;;5095419;28;20255;-32
2022/11/02 11:33:53;;;;;;;11.60;2.23;;;16.50;99.90;;;;;;5091112;28;20198;-32
2022/11/02 11:36:33;;;;;;;12.77;2.40;;;16.60;99.90;;;;;;5089783;28;20210;-32
2022/11/02 11:39:03;;;;;;;9.47;2.27;;;16.60;99.90;;;;;;5093625;28;20314;-32
2022/11/02 11:41:33;;;;;;;13.23;2.87;;;16.60;99.90;;;;;;5082283;28;20270;-32
2022/11/02 11:44:01;;;;;;;16.77;2.53;;;16.60;99.90;;;;;;5082433;28;20218;-32
2022/11/02 11:46:39;;;;;;;9.67;1.90;;;16.70;99.90;;;;;;5091676;28;20792;-32
2022/11/02 11:49:19;;;;;;;10.97;2.63;;;16.60;99.90;;;;;;5090262;28;20556;-32
2022/11/02 11:51:52;;;;;;;14.73;2.40;;;16.70;99.90;;;;;;5084307;28;20198;-32
2022/11/02 11:54:29;;;;;;;13.63;2.33;;;16.70;99.90;;;;;;5083349;28;20195;-32
2022/11/02 11:57:17;;;;;;;10.63;1.90;;;16.70;99.90;;;;;;5085861;28;20228;-32
2022/11/02 11:59:46;;;;;;;13.70;2.20;;;16.70;99.90;;;;;;5090542;28;20286;-32
2022/11/02 12:02:29;;;;;;;9.85;1.77;;;16.80;99.90;;;;;;5094150;28;20815;-32
2022/11/02 12:05:12;;;;;;;17.90;2.97;;;16.80;99.90;;;;;;5090359;28;20312;-32
2022/11/02 12:07:41;;;;;;;14.80;2.70;;;16.80;99.90;;;;;;5099392;28;20206;-32
2022/11/02 12:10:30;;;;;;;16.43;2.23;;;16.80;99.90;;;;;;5096138;28;20291;-32
2022/11/02 12:13:12;;;;;;;9.77;2.03;;;16.90;99.90;;;;;;5085046;28;20233;-32
2022/11/02 12:15:51;;;;;;;6.93;2.33;;;16.90;99.90;;;;;;5088019;28;20444;-33
2022/11/02 12:18:41;;;;;;;8.50;2.13;;;16.80;99.90;;;;;;5091532;28;20574;-32
2022/11/02 12:21:19;;;;;;;12.77;2.53;;;16.90;99.90;;;;;;5090929;28;20353;-31
2022/11/02 12:24:31;;;;;;;10.03;2.37;;;16.90;99.90;;;;;;5085264;28;20653;-32
2022/11/02 12:27:18;;;;;;;11.70;2.17;;;17.00;99.90;;;;;;5031736;28;20192;-32
2022/11/02 12:30:08;;;;;;;13.00;1.80;;;17.00;99.90;;;;;;5093002;28;20243;-32
2022/11/02 12:32:57;;;;;;;14.20;2.33;;;17.00;99.90;;;;;;5101579;28;20210;-32
2022/11/02 12:35:42;;;;;;;14.03;2.40;;;17.10;99.90;;;;;;5095221;28;20218;-32
2022/11/02 12:38:46;;;;;;;7.97;2.10;;;17.10;99.90;;;;;;5101384;28;20208;-32
2022/11/02 12:41:44;;;;;;;10.57;2.20;;;17.10;99.90;;;;;;5083284;28;20305;-32
2022/11/02 12:44:37;;;;;;;12.73;2.60;;;17.10;99.90;;;;;;5085648;28;20210;-32
2022/11/02 12:47:35;;;;;;;5.00;1.70;;;17.10;99.90;;;;;;5082943;28;20488;-32
2022/11/02 12:50:34;;;;;;;10.70;2.20;;;17.10;99.90;;;;;;5088492;28;20220;-32
2022/11/02 12:53:28;;;;;;;8.50;1.90;;;17.10;99.90;;;;;;5090901;27;20209;-33
2022/11/02 12:56:01;;;;;;;13.63;2.03;;;17.10;99.90;;;;;;5094677;28;20218;-32
2022/11/02 12:58:31;;;;;;;10.43;2.57;;;17.00;99.90;;;;;;5089312;28;20210;-31
2022/11/02 13:01:26;;;;;;;6.63;1.70;;;17.00;99.90;;;;;;5086749;28;20199;-32
2022/11/02 13:04:16;;;;;;;11.63;1.97;;;17.10;99.90;;;;;;5107916;28;20206;-32
2022/11/02 13:06:47;;;;;;;8.27;1.80;;;17.10;99.90;;;;;;5093463;28;20765;-32
2022/11/02 13:09:15;;;;;;;8.87;1.70;;;17.20;99.90;;;;;;5104406;28;20218;-32
2022/11/02 13:11:50;;;;;;;6.27;1.60;;;17.20;99.90;;;;;;5107197;28;20737;-32
2022/11/02 13:14:20;;;;;;;6.83;1.60;;;17.20;99.90;;;;;;5093601;28;20211;-32
2022/11/02 13:17:00;;;;;;;9.83;1.93;;;17.20;99.90;;;;;;5091102;28;20200;-33
2022/11/02 13:19:47;;;;;;;8.53;2.00;;;17.20;99.90;;;;;;5094581;28;20230;-32
2022/11/02 13:22:17;;;;;;;8.43;1.90;;;17.20;99.90;;;;;;5089798;28;20238;-32
2022/11/02 13:24:53;;;;;;;9.37;2.27;;;17.20;99.90;;;;;;5092872;28;20220;-32
2022/11/02 13:27:47;;;;;;;8.80;2.03;;;17.20;99.90;;;;;;5104297;28;20961;-32
2022/11/02 13:30:16;;;;;;;9.07;1.70;;;17.20;99.90;;;;;;5089532;28;20195;-32
2022/11/02 13:33:00;;;;;;;6.87;1.37;;;17.20;99.90;;;;;;5099162;28;20263;-32
2022/11/02 13:35:36;;;;;;;8.63;1.60;;;17.20;99.90;;;;;;5098477;28;20298;-32